Portada
METAR-TAF:

METAR-TAF

Aeroports :

Spaa

Tomaszów Mazowiecki, Polònia

latitud: 51-35-04N, longitud: 020-05-52E, altitud: 174 m

METAR: manca

Hora: 16:58 (14:58 UTC)

Pronòstic

L'informe es va fer fa 58 minuts, a les 14:00 UTC
Pronòstic vàlid del 18 a les 15 UTC al 18 a les 24 UTC
Vent 6 kt del Est/Sud-Est
Visibilitat 10 km o més
sense núvols per sota de 1500 mi sense presència de cumulonimbus.

TAF: EPTM 181400Z 1815/1824 12006KT CAVOK

Observacions i pronòstics meteorològics de més de 4000 aeroports (METAR i TAF).

Les estacions disponibles són els punts grocs i vermells al mapa.

Posi el ratolí al punt desitjat per veure el nom de l'estació.

Feu clic per veure les observacions i els pronòstics meteorològics.

Per canviar el mapa: feu clic els botons verds amb una creu de color negre per apropar; al botó verd amb un guió per allunyar la imatge; o en les fletxes verdes per a mapes adjacents.


METAR-TAF: